Gazpromneft East — UBOF4 — position and weather

sailwx.info

Track history (hours):
 
Tides and Currents Weather Stations Pressure Air Temp Water Temp Dewpoint Dewpoint Depression Visibility Wind Speed Wind Dir Waves Ship Positions

Gazpromneft East

Last reported at 2018-May-27 01:30 UTC. Time now 2018-May-27 01:29 UTC.
Position N 59°53' E 030°13'.

Length 79 m; draft 4.2 m.

Type: Ship (hazmat cat C). MMSI: 273335320.

Date/timePositionNaut miles runAvg speedWind from/ knotsBaromVisibWave heightAir tempDewpointWater temp
2018-May-27 01:30N 59°53' E 030°13'0 0.0
2018-May-27 01:00N 59°53' E 030°13'0 0.0
2018-May-27 00:30N 59°53' E 030°13'0 0.0
2018-May-26 23:54N 59°53' E 030°13'0 0.0
2018-May-26 23:24N 59°53' E 030°13'0 0.0
2018-May-26 23:00N 59°53' E 030°13'0 0.0
2018-May-26 22:24N 59°53' E 030°13'0 0.0
2018-May-26 21:57N 59°53' E 030°13'0 0.0
2018-May-26 21:30N 59°53' E 030°13'0 0.0
2018-May-26 21:00N 59°53' E 030°13'0 0.0
2018-May-26 20:30N 59°53' E 030°13'0 0.0
2018-May-26 20:00N 59°53' E 030°13'0 0.0
2018-May-26 19:12N 59°53' E 030°13'0 0.0
2018-May-26 19:00N 59°53' E 030°13'0 0.0
2018-May-26 18:24N 59°53' E 030°13'0 0.0
2018-May-26 18:00N 59°53' E 030°13'0 0.0
2018-May-26 17:30N 59°53' E 030°13'0 0.0
2018-May-26 17:00N 59°53' E 030°13'0 0.0
2018-May-26 16:27N 59°53' E 030°13'0 0.0
2018-May-26 16:00N 59°53' E 030°13'0 0.0
2018-May-26 15:30N 59°53' E 030°13'0 0.0
2018-May-26 14:54N 59°53' E 030°13'0 0.0
2018-May-26 14:30N 59°53' E 030°13'0 0.0
2018-May-26 14:00N 59°53' E 030°13'0 0.0
2018-May-26 13:30N 59°53' E 030°13'0 0.0
2018-May-26 13:00N 59°53' E 030°13'0 0.0
2018-May-26 12:30N 59°53' E 030°13'0 0.0
2018-May-26 12:00N 59°53' E 030°13'0 0.0
2018-May-26 11:30N 59°53' E 030°13'0 0.0
2018-May-26 11:00N 59°53' E 030°13'0 0.0
2018-May-26 10:30N 59°53' E 030°13'0 0.0
2018-May-26 10:00N 59°53' E 030°13'0 0.0
2018-May-26 09:30N 59°53' E 030°13'0 0.0
2018-May-26 09:00N 59°53' E 030°13'0 0.0
2018-May-26 08:30N 59°53' E 030°13'0 0.0
2018-May-26 07:57N 59°53' E 030°13'0 0.0
2018-May-26 07:27N 59°53' E 030°13'0 0.0
2018-May-26 07:00N 59°53' E 030°13'0 0.8
2018-May-26 06:30N 59°53' E 030°13'5 4.8
2018-May-26 05:30N 59°55' E 030°04'510.3
2018-May-26 05:00N 59°56' E 029°54'510.3
2018-May-26 04:30N 59°59' E 029°45'511.0
2018-May-26 04:00N 60°01' E 029°35'612.3
2018-May-26 03:31N 60°02' E 029°23'612.1
2018-May-26 03:00N 60°01' E 029°11'612.2
2018-May-26 02:30N 59°59' E 028°59'612.6
2018-May-26 02:00N 59°57' E 028°48'612.6
2018-May-26 01:30N 59°53' E 028°37'612.1
2018-May-26 01:00N 59°50' E 028°26'612.2
2018-May-26 00:30N 59°44' E 028°24'3 4.8
2018-May-25 23:53N 59°42' E 028°21'0 0.1
2018-May-25 23:23N 59°42' E 028°21'0 0.0
2018-May-25 22:57N 59°42' E 028°21'0 0.1
2018-May-25 22:23N 59°42' E 028°21'0 0.1
2018-May-25 21:56N 59°42' E 028°21'3 6.4
2018-May-25 21:30N 59°44' E 028°24'2 3.1
2018-May-25 20:53N 59°46' E 028°25'0 0.0
2018-May-25 20:23N 59°46' E 028°25'0 0.0
2018-May-25 19:53N 59°46' E 028°25'0 0.0
2018-May-25 19:08N 59°46' E 028°25'0 0.0
2018-May-25 18:53N 59°46' E 028°25'0 0.0
2018-May-25 18:23N 59°46' E 028°25'0 0.0
2018-May-25 17:53N 59°46' E 028°25'0 0.0
2018-May-25 17:26N 59°46' E 028°25'0 0.0
2018-May-25 16:56N 59°46' E 028°25'0 0.0
2018-May-25 16:26N 59°46' E 028°25'0 0.0
2018-May-25 15:56N 59°46' E 028°25'0 0.0
2018-May-25 15:26N 59°46' E 028°25'0 0.0
2018-May-25 15:00N 59°46' E 028°25'3 6.6
2018-May-25 14:30N 59°43' E 028°23'2 3.9
2018-May-25 14:00N 59°42' E 028°19'0 0.0
2018-May-25 13:30N 59°42' E 028°19'0 0.0
2018-May-25 13:00N 59°42' E 028°19'0 0.0
2018-May-25 12:30N 59°42' E 028°19'0 0.0
2018-May-25 12:00N 59°42' E 028°19'0 0.0
2018-May-25 11:30N 59°42' E 028°19'0 0.0
2018-May-25 11:00N 59°42' E 028°19'0 0.0
2018-May-25 10:30N 59°42' E 028°19'0 0.0
2018-May-25 10:00N 59°42' E 028°19'0 0.0
2018-May-25 09:30N 59°42' E 028°19'0 0.0
2018-May-25 09:00N 59°42' E 028°19'0 0.0
2018-May-25 08:30N 59°42' E 028°19'0 0.0
2018-May-25 08:00N 59°42' E 028°19'0 0.0
2018-May-25 07:30N 59°42' E 028°19'2 3.9
2018-May-25 07:00N 59°43' E 028°22'4 6.4
2018-May-25 06:26N 59°47' E 028°24'0 0.0
2018-May-25 05:56N 59°47' E 028°24'0 0.0
2018-May-25 05:26N 59°47' E 028°24'0 0.0
2018-May-25 04:59N 59°47' E 028°24'0 0.0
2018-May-25 04:29N 59°47' E 028°24'0 0.0
2018-May-25 03:59N 59°47' E 028°24'0 0.0
2018-May-25 03:29N 59°47' E 028°24'0 0.0
2018-May-25 02:59N 59°47' E 028°24'0 0.0
2018-May-25 02:29N 59°47' E 028°24'0 0.0
2018-May-25 01:59N 59°47' E 028°24'0 0.0
2018-May-25 01:29N 59°47' E 028°24'0 0.0
2018-May-25 00:59N 59°47' E 028°24'0 0.0
2018-May-25 00:29N 59°47' E 028°24'0 0.0
2018-May-24 23:59N 59°47' E 028°24'0 0.0
2018-May-24 23:29N 59°47' E 028°24'1 0.9
2018-May-24 22:54N 59°46' E 028°25'0 0.0
2018-May-24 22:24N 59°46' E 028°25'0 0.0
2018-May-24 21:54N 59°46' E 028°25'0 0.0
2018-May-24 21:24N 59°46' E 028°25'0 0.0
2018-May-24 20:57N 59°46' E 028°25'0 0.0
2018-May-24 20:27N 59°46' E 028°25'0 0.0
2018-May-24 19:57N 59°46' E 028°25'0 0.0
2018-May-24 19:27N 59°46' E 028°25'0 0.0
2018-May-24 18:57N 59°46' E 028°25'0 0.0
2018-May-24 18:27N 59°46' E 028°25'0 0.0
2018-May-24 18:00N 59°46' E 028°25'3 5.5
2018-May-24 17:30N 59°44' E 028°23'3 4.6
2018-May-24 16:54N 59°42' E 028°19'0 0.0
2018-May-24 16:30N 59°42' E 028°19'0 0.0
2018-May-24 15:57N 59°42' E 028°19'0 0.0
2018-May-24 15:27N 59°42' E 028°19'0 0.0
2018-May-24 14:57N 59°42' E 028°19'0 0.0
2018-May-24 14:27N 59°42' E 028°19'0 0.0
2018-May-24 13:57N 59°42' E 028°19'0 0.0
2018-May-24 09:00N 59°42' E 028°19'0 0.0
2018-May-24 08:30N 59°42' E 028°19'0 0.0
2018-May-24 07:45N 59°42' E 028°19'0 0.0
2018-May-24 07:30N 59°42' E 028°19'0 0.0
2018-May-24 07:00N 59°42' E 028°19'0 0.0
2018-May-24 06:30N 59°42' E 028°19'0 0.0
2018-May-24 06:00N 59°42' E 028°19'0 0.0
2018-May-24 05:30N 59°42' E 028°19'0 0.0
2018-May-24 05:00N 59°42' E 028°19'0 0.0
2018-May-24 04:21N 59°42' E 028°19'0 0.0
2018-May-24 03:55N 59°42' E 028°19'0 0.0
2018-May-24 03:27N 59°42' E 028°19'0 0.3
2018-May-24 03:01N 59°42' E 028°20'3 5.4
2018-May-24 02:31N 59°41' E 028°25'0 0.7
2018-May-24 02:01N 59°41' E 028°25'0 0.0
2018-May-24 01:30N 59°41' E 028°25'0 0.0
2018-May-24 01:01N 59°41' E 028°25'0 0.0
2018-May-24 00:31N 59°41' E 028°25'0 0.0
2018-May-24 00:01N 59°41' E 028°25'0 0.0
2018-May-23 23:31N 59°41' E 028°25'0 0.0
2018-May-23 23:00N 59°41' E 028°25'3 5.1
2018-May-23 22:31N 59°43' E 028°23'4 7.0
2018-May-23 21:58N 59°47' E 028°24'0 0.0
2018-May-23 21:28N 59°47' E 028°24'0 0.0
2018-May-23 20:58N 59°47' E 028°24'0 0.0
2018-May-23 20:28N 59°47' E 028°24'0 0.0
2018-May-23 19:58N 59°47' E 028°24'0 0.1
2018-May-23 19:25N 59°47' E 028°24'0 0.1
2018-May-23 18:58N 59°47' E 028°24'0 0.1
2018-May-23 18:30N 59°47' E 028°24'2 4.8
2018-May-23 18:00N 59°44' E 028°24'3 6.6
2018-May-23 17:30N 59°42' E 028°19'0 0.1
2018-May-23 16:54N 59°42' E 028°19'0 0.1
2018-May-23 16:24N 59°42' E 028°20'0 0.0
2018-May-23 15:54N 59°42' E 028°20'0 0.0
2018-May-23 15:27N 59°42' E 028°20'0 0.0
2018-May-23 14:57N 59°42' E 028°20'2 5.4
2018-May-23 14:30N 59°43' E 028°23'510.6
2018-May-23 14:00N 59°49' E 028°25'611.4
2018-May-23 13:30N 59°53' E 028°33'815.3
2018-May-23 13:00N 59°56' E 028°47'812.6
2018-May-23 12:24N 60°00' E 029°00'4 9.6
2018-May-23 12:00N 60°01' E 029°07'612.5
2018-May-23 11:30N 60°02' E 029°19'510.5
2018-May-23 11:00N 60°01' E 029°30'4 8.9
2018-May-23 10:30N 60°00' E 029°38'5 9.5
2018-May-23 10:00N 59°58' E 029°47'510.1
2018-May-23 09:30N 59°56' E 029°56'510.5
2018-May-23 09:00N 59°54' E 030°06'3 5.9
2018-May-23 08:30N 59°53' E 030°11'1 1.9
2018-May-23 07:59N 59°53' E 030°13'0 0.0
2018-May-23 07:28N 59°53' E 030°13'0 0.0
2018-May-23 06:58N 59°53' E 030°13'0 0.0
2018-May-23 06:28N 59°53' E 030°13'0 0.0
2018-May-23 05:55N 59°53' E 030°13'0 0.0
2018-May-23 05:28N 59°53' E 030°13'0 0.0
2018-May-23 04:58N 59°53' E 030°13'0 0.0
2018-May-23 04:28N 59°53' E 030°13'0 0.0
2018-May-23 03:58N 59°53' E 030°13'0 0.0
2018-May-23 03:28N 59°53' E 030°13'0 0.0
2018-May-23 02:58N 59°53' E 030°13'0 0.0
2018-May-23 02:28N 59°53' E 030°13'0 0.0
2018-May-23 01:58N 59°53' E 030°13'0 0.0
2018-May-23 01:28N 59°53' E 030°13'0 0.0
2018-May-23 00:58N 59°53' E 030°13'0 0.0
2018-May-23 00:28N 59°53' E 030°13'0 0.0
2018-May-22 23:58N 59°53' E 030°13'0 0.0
2018-May-22 23:28N 59°53' E 030°13'0 0.0
2018-May-22 22:58N 59°53' E 030°13'0 0.0
2018-May-22 22:28N 59°53' E 030°13'0 0.0
2018-May-22 21:58N 59°53' E 030°13'0 0.0
2018-May-22 21:28N 59°53' E 030°13'0 0.0
2018-May-22 20:58N 59°53' E 030°13'0 0.0
2018-May-22 20:28N 59°53' E 030°13'0 0.0
2018-May-22 19:58N 59°53' E 030°13'0 0.0
2018-May-22 19:28N 59°53' E 030°13'0 0.0
2018-May-22 18:58N 59°53' E 030°13'0 0.0
2018-May-22 18:28N 59°53' E 030°13'0 0.1
2018-May-22 17:58N 59°53' E 030°14'0 0.0
2018-May-22 17:28N 59°53' E 030°14'0 0.0
2018-May-22 16:58N 59°53' E 030°14'0 0.0
2018-May-22 16:28N 59°53' E 030°14'0 0.0
2018-May-22 15:58N 59°53' E 030°14'0 0.0
2018-May-22 15:28N 59°53' E 030°14'1 2.3
2018-May-22 15:00N 59°53' E 030°12'3 5.6
2018-May-22 14:30N 59°54' E 030°06'4 7.8
2018-May-22 14:00N 59°56' E 029°59'4 8.2
2018-May-22 13:30N 59°57' E 029°51'24 7.1
2018-May-22 10:07N 60°02' E 029°04'111.2
2018-May-22 10:00N 60°02' E 029°02'611.4
2018-May-22 09:30N 60°02' E 028°50'611.5
2018-May-22 09:00N 60°02' E 028°39'611.4
2018-May-22 08:30N 60°03' E 028°28'611.4
2018-May-22 08:00N 60°06' E 028°18'611.2
2018-May-22 07:30N 60°08' E 028°08'611.4
2018-May-22 07:00N 60°10' E 027°57'510.9
2018-May-22 06:30N 60°11' E 027°46'611.5
2018-May-22 06:00N 60°08' E 027°36'611.5
2018-May-22 05:30N 60°05' E 027°26'611.8
2018-May-22 05:00N 60°02' E 027°16'612.1
2018-May-22 04:30N 59°59' E 027°05'713.4
2018-May-22 03:59N 59°59' E 026°52'5 9.4
2018-May-22 03:30N 59°59' E 026°43'711.7
2018-May-22 02:55N 59°58' E 026°29'2111.9
2018-May-22 01:09N 59°51' E 025°50'212.0
2018-May-22 00:59N 59°50' E 025°47'612.0
2018-May-22 00:30N 59°46' E 025°37'611.8
2018-May-22 00:00N 59°42' E 025°28'612.0
2018-May-21 23:30N 59°39' E 025°19'612.0
2018-May-21 23:00N 59°35' E 025°09'611.9
2018-May-21 22:30N 59°31' E 025°00'3 5.3
2018-May-21 22:00N 59°30' E 024°56'0 0.0
2018-May-21 21:30N 59°30' E 024°56'0 0.0
2018-May-21 21:00N 59°30' E 024°56'0 0.0
2018-May-21 20:30N 59°30' E 024°56'0 0.0
2018-May-21 20:00N 59°30' E 024°56'0 0.0
2018-May-21 19:30N 59°30' E 024°56'0 0.0
2018-May-21 19:00N 59°30' E 024°56'0 0.0
2018-May-21 18:30N 59°30' E 024°56'0 0.0
2018-May-21 18:00N 59°30' E 024°56'0 0.0
2018-May-21 17:30N 59°30' E 024°56'0 0.0
2018-May-21 17:00N 59°30' E 024°56'0 0.0
2018-May-21 16:30N 59°30' E 024°56'0 0.0
2018-May-21 16:00N 59°30' E 024°56'0 0.0
2018-May-21 15:30N 59°30' E 024°56'0 0.0
2018-May-21 15:00N 59°30' E 024°56'0 0.0
2018-May-21 14:30N 59°30' E 024°56'0 0.0
2018-May-21 14:00N 59°30' E 024°56'0 0.0
2018-May-21 13:30N 59°30' E 024°56'0 0.0
2018-May-21 13:00N 59°30' E 024°56'4 7.6
2018-May-21 12:30N 59°32' E 025°02'611.5
2018-May-21 12:00N 59°37' E 025°09'611.3
2018-May-21 11:30N 59°42' E 025°14'612.0
2018-May-21 11:00N 59°46' E 025°23'612.1
2018-May-21 10:30N 59°50' E 025°32'611.7
2018-May-21 10:00N 59°54' E 025°41'611.8
2018-May-21 09:30N 59°56' E 025°52'611.4
2018-May-21 08:58N 59°58' E 026°04'511.1
2018-May-21 08:30N 59°59' E 026°13'611.0
2018-May-21 08:00N 60°00' E 026°24'611.2
2018-May-21 07:30N 60°01' E 026°35'611.0
2018-May-21 07:00N 60°01' E 026°46'511.0
2018-May-21 06:30N 59°60' E 026°57'510.3
2018-May-21 06:00N 60°00' E 027°07'510.9
2018-May-21 05:30N 60°03' E 027°16'510.8
2018-May-21 05:00N 60°06' E 027°26'712.7
2018-May-21 04:25N 60°10' E 027°38'510.4
2018-May-21 03:55N 60°12' E 027°48'511.6
2018-May-21 03:29N 60°10' E 027°58'612.4
2018-May-21 02:58N 60°09' E 028°10'611.1
2018-May-21 02:25N 60°06' E 028°21'511.1
2018-May-21 01:57N 60°04' E 028°30'610.8
2018-May-21 01:23N 60°03' E 028°42'511.5
2018-May-21 00:59N 60°03' E 028°52'713.0
2018-May-21 00:27N 60°02' E 029°05'3 5.3
2018-May-20 23:59N 60°02' E 029°11'611.1
2018-May-20 23:28N 60°02' E 029°22'511.1
2018-May-20 23:00N 60°01' E 029°32'611.4
2018-May-20 22:30N 59°59' E 029°43'510.4
2018-May-20 22:00N 59°57' E 029°52'611.4
2018-May-20 21:30N 59°55' E 030°03'4 7.6
2018-May-20 21:00N 59°53' E 030°10'2 3.5
2018-May-20 20:30N 59°53' E 030°13'0 0.6
2018-May-20 20:00N 59°53' E 030°14'0 0.0
2018-May-20 19:30N 59°53' E 030°14'0 0.0
2018-May-20 19:00N 59°53' E 030°14'0 0.0
2018-May-20 18:30N 59°53' E 030°14'0 0.0
2018-May-20 18:00N 59°53' E 030°14'0 0.0
2018-May-20 17:30N 59°53' E 030°14'0 0.0
2018-May-20 17:00N 59°53' E 030°14'0 0.0
2018-May-20 16:30N 59°53' E 030°14'0 0.0
2018-May-20 16:00N 59°53' E 030°14'0 0.0
2018-May-20 15:30N 59°53' E 030°14'0 0.0
2018-May-20 15:00N 59°53' E 030°14'0 0.0
2018-May-20 14:30N 59°53' E 030°14'0 0.0
2018-May-20 14:00N 59°53' E 030°14'0 0.0
2018-May-20 13:30N 59°53' E 030°14'0 0.0
2018-May-20 13:00N 59°53' E 030°14'0 0.0
2018-May-20 12:30N 59°53' E 030°14'0 0.0
2018-May-20 12:00N 59°53' E 030°14'0 0.0
2018-May-20 11:30N 59°53' E 030°14'0 0.0
2018-May-20 11:00N 59°53' E 030°14'0 0.0
2018-May-20 10:30N 59°53' E 030°14'0 0.0
2018-May-20 10:00N 59°53' E 030°14'0 0.0
2018-May-20 09:30N 59°53' E 030°14'0 0.0
2018-May-20 09:01N 59°53' E 030°14'0 0.0
2018-May-20 08:30N 59°53' E 030°14'0 0.0
2018-May-20 08:00N 59°53' E 030°14'0 0.0
2018-May-20 07:30N 59°53' E 030°14'0 0.0
2018-May-20 07:00N 59°53' E 030°14'0 0.0
2018-May-20 06:30N 59°53' E 030°14'0 0.0
2018-May-20 06:00N 59°53' E 030°14'0 0.0
2018-May-20 05:30N 59°53' E 030°14'0 0.0
2018-May-20 05:00N 59°53' E 030°14'0 0.0
2018-May-20 04:30N 59°53' E 030°14'0 0.0
2018-May-20 04:00N 59°53' E 030°14'0 0.0
2018-May-20 03:30N 59°53' E 030°14'0 0.0
2018-May-20 03:00N 59°53' E 030°14'0 0.0
2018-May-20 02:30N 59°53' E 030°14'0 0.0
2018-May-20 02:00N 59°53' E 030°14'0 0.0
2018-May-20 01:30N 59°53' E 030°14'0 0.2
2018-May-20 00:56N 59°53' E 030°13'0 0.0
2018-May-20 00:30N 59°53' E 030°13'0 0.0
2018-May-20 00:00N 59°53' E 030°13'0 0.0
2018-May-19 23:30N 59°53' E 030°13'0 0.0
2018-May-19 23:00N 59°53' E 030°13'0 0.0
2018-May-19 22:30N 59°53' E 030°13'0 0.0
2018-May-19 22:00N 59°53' E 030°13'0 0.0
2018-May-19 21:30N 59°53' E 030°13'0 0.0
2018-May-19 21:00N 59°53' E 030°13'0 0.0
2018-May-19 20:30N 59°53' E 030°13'0 0.0
2018-May-19 20:00N 59°53' E 030°13'0 0.0
2018-May-19 19:30N 59°53' E 030°13'0 0.0
2018-May-19 19:00N 59°53' E 030°13'0 0.0
2018-May-19 18:31N 59°53' E 030°13'0 0.0
2018-May-19 18:00N 59°53' E 030°13'0 0.0
2018-May-19 17:31N 59°53' E 030°13'0 0.0
2018-May-19 17:00N 59°53' E 030°13'0 0.0
2018-May-19 16:30N 59°53' E 030°13'0 0.0
2018-May-19 16:01N 59°53' E 030°13'0 0.0
2018-May-19 15:30N 59°53' E 030°13'0 0.0
2018-May-19 15:00N 59°53' E 030°13'0 0.0
2018-May-19 14:30N 59°53' E 030°13'0 0.0
2018-May-19 14:00N 59°53' E 030°13'0 0.0
2018-May-19 13:30N 59°53' E 030°13'0 0.0
2018-May-19 13:00N 59°53' E 030°13'0 0.0
2018-May-19 12:30N 59°53' E 030°13'0 0.0
2018-May-19 12:00N 59°53' E 030°13'0 0.0
2018-May-19 11:30N 59°53' E 030°13'0 0.0
2018-May-19 11:00N 59°53' E 030°13'0 0.0
2018-May-19 10:30N 59°53' E 030°13'0 0.0
2018-May-19 10:00N 59°53' E 030°13'0 0.0
2018-May-19 09:29N 59°53' E 030°13'0 0.0
2018-May-19 09:00N 59°53' E 030°13'0 0.0
2018-May-19 08:30N 59°53' E 030°13'0 0.0
2018-May-19 08:00N 59°53' E 030°13'0 0.0
2018-May-19 07:30N 59°53' E 030°13'0 0.0
2018-May-19 07:01N 59°53' E 030°13'0 0.0
2018-May-19 06:30N 59°53' E 030°13'0 0.0
2018-May-19 06:00N 59°53' E 030°13'0 0.0
2018-May-19 05:30N 59°53' E 030°13'0 0.0
2018-May-19 05:00N 59°53' E 030°13'0 0.0
2018-May-19 04:28N 59°53' E 030°13'0 0.0
2018-May-19 04:00N 59°53' E 030°13'0 0.0
2018-May-19 03:30N 59°53' E 030°13'0 0.0
2018-May-19 03:00N 59°53' E 030°13'0 0.0
2018-May-19 02:30N 59°53' E 030°13'0 0.0
2018-May-19 02:00N 59°53' E 030°13'0 0.0
2018-May-19 01:30N 59°53' E 030°13'0 0.0
2018-May-19 01:00N 59°53' E 030°13'0 0.0
2018-May-19 00:30N 59°53' E 030°13'0 0.0
2018-May-19 00:00N 59°53' E 030°13'0 0.0
2018-May-18 23:30N 59°53' E 030°13'0 0.0
2018-May-18 23:00N 59°53' E 030°13'0 0.0
2018-May-18 22:30N 59°53' E 030°13'0 0.0
2018-May-18 22:00N 59°53' E 030°13'0 0.0
2018-May-18 21:30N 59°53' E 030°13'0 0.0
2018-May-18 21:00N 59°53' E 030°13'0 0.0
2018-May-18 20:30N 59°53' E 030°13'0 0.0
2018-May-18 20:00N 59°53' E 030°13'0 0.0
2018-May-18 19:30N 59°53' E 030°13'0 0.0
2018-May-18 19:00N 59°53' E 030°13'0 0.0
2018-May-18 18:30N 59°53' E 030°13'0 0.0
2018-May-18 18:01N 59°53' E 030°13'0 0.0
2018-May-18 17:30N 59°53' E 030°13'0 0.2
2018-May-18 17:00N 59°53' E 030°14'0 0.0
2018-May-18 16:30N 59°53' E 030°14'0 0.0
2018-May-18 16:00N 59°53' E 030°14'0 0.2
2018-May-18 15:30N 59°53' E 030°13'2 5.0
2018-May-18 15:00N 59°54' E 030°09'4 8.2
2018-May-18 14:30N 59°55' E 030°01'510.7
2018-May-18 14:00N 59°57' E 029°51'6 9.7
2018-May-18 13:25N 59°60' E 029°41'610.0
2018-May-18 12:49N 60°01' E 029°29'3 7.1
2018-May-18 12:27N 60°01' E 029°24'0 0.2
2018-May-18 10:54N 60°01' E 029°24'0 0.0
2018-May-18 10:15N 60°01' E 029°24'0 0.0
2018-May-18 09:35N 60°01' E 029°24'0 0.1
2018-May-18 09:27N 60°01' E 029°24'0 0.0
2018-May-18 08:57N 60°01' E 029°24'0 0.0
2018-May-18 08:30N 60°01' E 029°24'4 4.2
2018-May-18 07:35N 60°01' E 029°16'221.7
2018-May-18 07:30N 60°01' E 029°12'5 9.9
2018-May-18 07:00N 60°01' E 029°03'510.6
2018-May-18 06:30N 60°06' E 028°58'611.7
2018-May-18 06:00N 60°11' E 028°53'611.2
2018-May-18 05:30N 60°16' E 028°47'5 7.8
2018-May-18 04:53N 60°20' E 028°42'0 0.0
2018-May-18 04:27N 60°20' E 028°42'0 0.0
2018-May-18 04:00N 60°20' E 028°42'0 0.0
2018-May-18 03:27N 60°20' E 028°42'0 0.0
2018-May-18 03:00N 60°20' E 028°42'0 0.0
2018-May-18 02:29N 60°20' E 028°42'0 0.0
2018-May-18 02:00N 60°20' E 028°42'0 0.0
2018-May-18 01:30N 60°20' E 028°42'0 0.0
2018-May-18 01:00N 60°20' E 028°42'0 0.0
2018-May-18 00:27N 60°20' E 028°42'0 0.0
2018-May-18 00:00N 60°20' E 028°42'0 0.0
2018-May-17 23:29N 60°20' E 028°42'0 0.0
2018-May-17 23:01N 60°20' E 028°42'0 0.0
2018-May-17 22:26N 60°20' E 028°42'0 0.0
2018-May-17 21:59N 60°20' E 028°42'0 0.0
2018-May-17 21:29N 60°20' E 028°42'1 1.4
2018-May-17 20:57N 60°20' E 028°42'510.6
2018-May-17 20:29N 60°16' E 028°49'510.5
2018-May-17 20:00N 60°12' E 028°55'611.4
2018-May-17 19:30N 60°06' E 028°57'5 9.9
2018-May-17 19:00N 60°02' E 029°04'612.1
2018-May-17 18:30N 60°02' E 029°16'612.2
2018-May-17 18:00N 60°02' E 029°28'612.3
2018-May-17 17:30N 59°60' E 029°40'510.5
2018-May-17 17:00N 59°57' E 029°50'611.0
2018-May-17 16:30N 59°55' E 029°60'5 9.4
2018-May-17 16:00N 59°54' E 030°08'3 5.4
2018-May-17 15:31N 59°53' E 030°14'0 0.0
2018-May-17 15:00N 59°53' E 030°14'0 0.0
2018-May-17 14:30N 59°53' E 030°14'0 0.0
2018-May-17 14:00N 59°53' E 030°14'0 0.0
2018-May-17 13:30N 59°53' E 030°14'0 0.0
2018-May-17 13:00N 59°53' E 030°14'0 0.0
2018-May-17 12:30N 59°53' E 030°14'0 0.0
2018-May-17 12:00N 59°53' E 030°14'0 0.0
2018-May-17 11:30N 59°53' E 030°14'0 0.0
2018-May-17 11:00N 59°53' E 030°14'0 0.0
2018-May-17 10:30N 59°53' E 030°14'0 0.0
2018-May-17 10:00N 59°53' E 030°14'0 0.0
2018-May-17 09:31N 59°53' E 030°14'0 0.0
2018-May-17 09:00N 59°53' E 030°14'0 0.0
2018-May-17 08:30N 59°53' E 030°14'0 0.0
2018-May-17 08:00N 59°53' E 030°14'0 0.0
2018-May-17 07:30N 59°53' E 030°14'0 0.0
2018-May-17 07:00N 59°53' E 030°14'0 0.0
2018-May-17 06:30N 59°53' E 030°14'0 0.0
2018-May-17 06:00N 59°53' E 030°14'0 0.0
2018-May-17 05:30N 59°53' E 030°14'0 0.0
2018-May-17 05:00N 59°53' E 030°14'0 0.0
2018-May-17 04:30N 59°53' E 030°14'0 0.3
2018-May-17 04:00N 59°53' E 030°13'3 5.7
2018-May-17 03:30N 59°54' E 030°08'5 9.1
2018-May-17 03:00N 59°55' E 029°59'610.8
2018-May-17 02:28N 59°58' E 029°48'  
Track history (hours):
 
Tides and Currents Weather Stations Pressure Air Temp Water Temp Dewpoint Dewpoint Depression Visibility Wind Speed Wind Dir Waves Ship Positions

Gazpromneft East

Last reported at 2018-May-27 01:30 UTC. Time now 2018-May-27 01:29 UTC.
Position N 59°53' E 030°13'.

Length 79 m; draft 4.2 m.

Type: Ship (hazmat cat C). MMSI: 273335320.

Date/timePositionNaut miles runAvg speedWind from/ knotsBaromVisibWave heightAir tempDewpointWater temp
2018-May-27 01:30N 59°53' E 030°13'0 0.0
2018-May-27 01:00N 59°53' E 030°13'0 0.0
2018-May-27 00:30N 59°53' E 030°13'0 0.0
2018-May-26 23:54N 59°53' E 030°13'0 0.0
2018-May-26 23:24N 59°53' E 030°13'0 0.0
2018-May-26 23:00N 59°53' E 030°13'0 0.0
2018-May-26 22:24N 59°53' E 030°13'0 0.0
2018-May-26 21:57N 59°53' E 030°13'0 0.0
2018-May-26 21:30N 59°53' E 030°13'0 0.0
2018-May-26 21:00N 59°53' E 030°13'0 0.0
2018-May-26 20:30N 59°53' E 030°13'0 0.0
2018-May-26 20:00N 59°53' E 030°13'0 0.0
2018-May-26 19:12N 59°53' E 030°13'0 0.0
2018-May-26 19:00N 59°53' E 030°13'0 0.0
2018-May-26 18:24N 59°53' E 030°13'0 0.0
2018-May-26 18:00N 59°53' E 030°13'0 0.0
2018-May-26 17:30N 59°53' E 030°13'0 0.0
2018-May-26 17:00N 59°53' E 030°13'0 0.0
2018-May-26 16:27N 59°53' E 030°13'0 0.0
2018-May-26 16:00N 59°53' E 030°13'0 0.0
2018-May-26 15:30N 59°53' E 030°13'0 0.0
2018-May-26 14:54N 59°53' E 030°13'0 0.0
2018-May-26 14:30N 59°53' E 030°13'0 0.0
2018-May-26 14:00N 59°53' E 030°13'0 0.0
2018-May-26 13:30N 59°53' E 030°13'0 0.0
2018-May-26 13:00N 59°53' E 030°13'0 0.0
2018-May-26 12:30N 59°53' E 030°13'0 0.0
2018-May-26 12:00N 59°53' E 030°13'0 0.0
2018-May-26 11:30N 59°53' E 030°13'0 0.0
2018-May-26 11:00N 59°53' E 030°13'0 0.0
2018-May-26 10:30N 59°53' E 030°13'0 0.0
2018-May-26 10:00N 59°53' E 030°13'0 0.0
2018-May-26 09:30N 59°53' E 030°13'0 0.0
2018-May-26 09:00N 59°53' E 030°13'0 0.0
2018-May-26 08:30N 59°53' E 030°13'0 0.0
2018-May-26 07:57N 59°53' E 030°13'0 0.0
2018-May-26 07:27N 59°53' E 030°13'0 0.0
2018-May-26 07:00N 59°53' E 030°13'0 0.8
2018-May-26 06:30N 59°53' E 030°13'5 4.8
2018-May-26 05:30N 59°55' E 030°04'510.3
2018-May-26 05:00N 59°56' E 029°54'510.3
2018-May-26 04:30N 59°59' E 029°45'511.0
2018-May-26 04:00N 60°01' E 029°35'612.3
2018-May-26 03:31N 60°02' E 029°23'612.1
2018-May-26 03:00N 60°01' E 029°11'612.2
2018-May-26 02:30N 59°59' E 028°59'612.6
2018-May-26 02:00N 59°57' E 028°48'612.6
2018-May-26 01:30N 59°53' E 028°37'612.1
2018-May-26 01:00N 59°50' E 028°26'612.2
2018-May-26 00:30N 59°44' E 028°24'3 4.8
2018-May-25 23:53N 59°42' E 028°21'0 0.1
2018-May-25 23:23N 59°42' E 028°21'0 0.0
2018-May-25 22:57N 59°42' E 028°21'0 0.1
2018-May-25 22:23N 59°42' E 028°21'0 0.1
2018-May-25 21:56N 59°42' E 028°21'3 6.4
2018-May-25 21:30N 59°44' E 028°24'2 3.1
2018-May-25 20:53N 59°46' E 028°25'0 0.0
2018-May-25 20:23N 59°46' E 028°25'0 0.0
2018-May-25 19:53N 59°46' E 028°25'0 0.0
2018-May-25 19:08N 59°46' E 028°25'0 0.0
2018-May-25 18:53N 59°46' E 028°25'0 0.0
2018-May-25 18:23N 59°46' E 028°25'0 0.0
2018-May-25 17:53N 59°46' E 028°25'0 0.0
2018-May-25 17:26N 59°46' E 028°25'0 0.0
2018-May-25 16:56N 59°46' E 028°25'0 0.0
2018-May-25 16:26N 59°46' E 028°25'0 0.0
2018-May-25 15:56N 59°46' E 028°25'0 0.0
2018-May-25 15:26N 59°46' E 028°25'0 0.0
2018-May-25 15:00N 59°46' E 028°25'3 6.6
2018-May-25 14:30N 59°43' E 028°23'2 3.9
2018-May-25 14:00N 59°42' E 028°19'0 0.0
2018-May-25 13:30N 59°42' E 028°19'0 0.0
2018-May-25 13:00N 59°42' E 028°19'0 0.0
2018-May-25 12:30N 59°42' E 028°19'0 0.0
2018-May-25 12:00N 59°42' E 028°19'0 0.0
2018-May-25 11:30N 59°42' E 028°19'0 0.0
2018-May-25 11:00N 59°42' E 028°19'0 0.0
2018-May-25 10:30N 59°42' E 028°19'0 0.0
2018-May-25 10:00N 59°42' E 028°19'0 0.0
2018-May-25 09:30N 59°42' E 028°19'0 0.0
2018-May-25 09:00N 59°42' E 028°19'0 0.0
2018-May-25 08:30N 59°42' E 028°19'0 0.0
2018-May-25 08:00N 59°42' E 028°19'0 0.0
2018-May-25 07:30N 59°42' E 028°19'2 3.9
2018-May-25 07:00N 59°43' E 028°22'4 6.4
2018-May-25 06:26N 59°47' E 028°24'0 0.0
2018-May-25 05:56N 59°47' E 028°24'0 0.0
2018-May-25 05:26N 59°47' E 028°24'0 0.0
2018-May-25 04:59N 59°47' E 028°24'0 0.0
2018-May-25 04:29N 59°47' E 028°24'0 0.0
2018-May-25 03:59N 59°47' E 028°24'0 0.0
2018-May-25 03:29N 59°47' E 028°24'0 0.0
2018-May-25 02:59N 59°47' E 028°24'0 0.0
2018-May-25 02:29N 59°47' E 028°24'0 0.0
2018-May-25 01:59N 59°47' E 028°24'0 0.0
2018-May-25 01:29N 59°47' E 028°24'0 0.0
2018-May-25 00:59N 59°47' E 028°24'0 0.0
2018-May-25 00:29N 59°47' E 028°24'0 0.0
2018-May-24 23:59N 59°47' E 028°24'0 0.0
2018-May-24 23:29N 59°47' E 028°24'1 0.9
2018-May-24 22:54N 59°46' E 028°25'0 0.0
2018-May-24 22:24N 59°46' E 028°25'0 0.0
2018-May-24 21:54N 59°46' E 028°25'0 0.0
2018-May-24 21:24N 59°46' E 028°25'0 0.0
2018-May-24 20:57N 59°46' E 028°25'0 0.0
2018-May-24 20:27N 59°46' E 028°25'0 0.0
2018-May-24 19:57N 59°46' E 028°25'0 0.0
2018-May-24 19:27N 59°46' E 028°25'0 0.0
2018-May-24 18:57N 59°46' E 028°25'0 0.0
2018-May-24 18:27N 59°46' E 028°25'0 0.0
2018-May-24 18:00N 59°46' E 028°25'3 5.5
2018-May-24 17:30N 59°44' E 028°23'3 4.6
2018-May-24 16:54N 59°42' E 028°19'0 0.0
2018-May-24 16:30N 59°42' E 028°19'0 0.0
2018-May-24 15:57N 59°42' E 028°19'0 0.0
2018-May-24 15:27N 59°42' E 028°19'0 0.0
2018-May-24 14:57N 59°42' E 028°19'0 0.0
2018-May-24 14:27N 59°42' E 028°19'0 0.0
2018-May-24 13:57N 59°42' E 028°19'0 0.0
2018-May-24 09:00N 59°42' E 028°19'0 0.0
2018-May-24 08:30N 59°42' E 028°19'0 0.0
2018-May-24 07:45N 59°42' E 028°19'0 0.0
2018-May-24 07:30N 59°42' E 028°19'0 0.0
2018-May-24 07:00N 59°42' E 028°19'0 0.0
2018-May-24 06:30N 59°42' E 028°19'0 0.0
2018-May-24 06:00N 59°42' E 028°19'0 0.0
2018-May-24 05:30N 59°42' E 028°19'0 0.0
2018-May-24 05:00N 59°42' E 028°19'0 0.0
2018-May-24 04:21N 59°42' E 028°19'0 0.0
2018-May-24 03:55N 59°42' E 028°19'0 0.0
2018-May-24 03:27N 59°42' E 028°19'0 0.3
2018-May-24 03:01N 59°42' E 028°20'3 5.4
2018-May-24 02:31N 59°41' E 028°25'0 0.7
2018-May-24 02:01N 59°41' E 028°25'0 0.0
2018-May-24 01:30N 59°41' E 028°25'0 0.0
2018-May-24 01:01N 59°41' E 028°25'0 0.0
2018-May-24 00:31N 59°41' E 028°25'0 0.0
2018-May-24 00:01N 59°41' E 028°25'0 0.0
2018-May-23 23:31N 59°41' E 028°25'0 0.0
2018-May-23 23:00N 59°41' E 028°25'3 5.1
2018-May-23 22:31N 59°43' E 028°23'4 7.0
2018-May-23 21:58N 59°47' E 028°24'0 0.0
2018-May-23 21:28N 59°47' E 028°24'0 0.0
2018-May-23 20:58N 59°47' E 028°24'0 0.0
2018-May-23 20:28N 59°47' E 028°24'0 0.0
2018-May-23 19:58N 59°47' E 028°24'0 0.1
2018-May-23 19:25N 59°47' E 028°24'0 0.1
2018-May-23 18:58N 59°47' E 028°24'0 0.1
2018-May-23 18:30N 59°47' E 028°24'2 4.8
2018-May-23 18:00N 59°44' E 028°24'3 6.6
2018-May-23 17:30N 59°42' E 028°19'0 0.1
2018-May-23 16:54N 59°42' E 028°19'0 0.1
2018-May-23 16:24N 59°42' E 028°20'0 0.0
2018-May-23 15:54N 59°42' E 028°20'0 0.0
2018-May-23 15:27N 59°42' E 028°20'0 0.0
2018-May-23 14:57N 59°42' E 028°20'2 5.4
2018-May-23 14:30N 59°43' E 028°23'510.6
2018-May-23 14:00N 59°49' E 028°25'611.4
2018-May-23 13:30N 59°53' E 028°33'815.3
2018-May-23 13:00N 59°56' E 028°47'812.6
2018-May-23 12:24N 60°00' E 029°00'4 9.6
2018-May-23 12:00N 60°01' E 029°07'612.5
2018-May-23 11:30N 60°02' E 029°19'510.5
2018-May-23 11:00N 60°01' E 029°30'4 8.9
2018-May-23 10:30N 60°00' E 029°38'5 9.5
2018-May-23 10:00N 59°58' E 029°47'510.1
2018-May-23 09:30N 59°56' E 029°56'510.5
2018-May-23 09:00N 59°54' E 030°06'3 5.9
2018-May-23 08:30N 59°53' E 030°11'1 1.9
2018-May-23 07:59N 59°53' E 030°13'0 0.0
2018-May-23 07:28N 59°53' E 030°13'0 0.0
2018-May-23 06:58N 59°53' E 030°13'0 0.0
2018-May-23 06:28N 59°53' E 030°13'0 0.0
2018-May-23 05:55N 59°53' E 030°13'0 0.0
2018-May-23 05:28N 59°53' E 030°13'0 0.0
2018-May-23 04:58N 59°53' E 030°13'0 0.0
2018-May-23 04:28N 59°53' E 030°13'0 0.0
2018-May-23 03:58N 59°53' E 030°13'0 0.0
2018-May-23 03:28N 59°53' E 030°13'0 0.0
2018-May-23 02:58N 59°53' E 030°13'0 0.0
2018-May-23 02:28N 59°53' E 030°13'0 0.0
2018-May-23 01:58N 59°53' E 030°13'0 0.0
2018-May-23 01:28N 59°53' E 030°13'0 0.0
2018-May-23 00:58N 59°53' E 030°13'0 0.0
2018-May-23 00:28N 59°53' E 030°13'0 0.0
2018-May-22 23:58N 59°53' E 030°13'0 0.0
2018-May-22 23:28N 59°53' E 030°13'0 0.0
2018-May-22 22:58N 59°53' E 030°13'0 0.0
2018-May-22 22:28N 59°53' E 030°13'0 0.0
2018-May-22 21:58N 59°53' E 030°13'0 0.0
2018-May-22 21:28N 59°53' E 030°13'0 0.0
2018-May-22 20:58N 59°53' E 030°13'0 0.0
2018-May-22 20:28N 59°53' E 030°13'0 0.0
2018-May-22 19:58N 59°53' E 030°13'0 0.0
2018-May-22 19:28N 59°53' E 030°13'0 0.0
2018-May-22 18:58N 59°53' E 030°13'0 0.0
2018-May-22 18:28N 59°53' E 030°13'0 0.1
2018-May-22 17:58N 59°53' E 030°14'0 0.0
2018-May-22 17:28N 59°53' E 030°14'0 0.0
2018-May-22 16:58N 59°53' E 030°14'0 0.0
2018-May-22 16:28N 59°53' E 030°14'0 0.0
2018-May-22 15:58N 59°53' E 030°14'0 0.0
2018-May-22 15:28N 59°53' E 030°14'1 2.3
2018-May-22 15:00N 59°53' E 030°12'3 5.6
2018-May-22 14:30N 59°54' E 030°06'4 7.8
2018-May-22 14:00N 59°56' E 029°59'4 8.2
2018-May-22 13:30N 59°57' E 029°51'24 7.1
2018-May-22 10:07N 60°02' E 029°04'111.2
2018-May-22 10:00N 60°02' E 029°02'611.4
2018-May-22 09:30N 60°02' E 028°50'611.5
2018-May-22 09:00N 60°02' E 028°39'611.4
2018-May-22 08:30N 60°03' E 028°28'611.4
2018-May-22 08:00N 60°06' E 028°18'611.2
2018-May-22 07:30N 60°08' E 028°08'611.4
2018-May-22 07:00N 60°10' E 027°57'510.9
2018-May-22 06:30N 60°11' E 027°46'611.5
2018-May-22 06:00N 60°08' E 027°36'611.5
2018-May-22 05:30N 60°05' E 027°26'611.8
2018-May-22 05:00N 60°02' E 027°16'612.1
2018-May-22 04:30N 59°59' E 027°05'713.4
2018-May-22 03:59N 59°59' E 026°52'5 9.4
2018-May-22 03:30N 59°59' E 026°43'711.7
2018-May-22 02:55N 59°58' E 026°29'2111.9
2018-May-22 01:09N 59°51' E 025°50'212.0
2018-May-22 00:59N 59°50' E 025°47'612.0
2018-May-22 00:30N 59°46' E 025°37'611.8
2018-May-22 00:00N 59°42' E 025°28'612.0
2018-May-21 23:30N 59°39' E 025°19'612.0
2018-May-21 23:00N 59°35' E 025°09'611.9
2018-May-21 22:30N 59°31' E 025°00'3 5.3
2018-May-21 22:00N 59°30' E 024°56'0 0.0
2018-May-21 21:30N 59°30' E 024°56'0 0.0
2018-May-21 21:00N 59°30' E 024°56'0 0.0
2018-May-21 20:30N 59°30' E 024°56'0 0.0
2018-May-21 20:00N 59°30' E 024°56'0 0.0
2018-May-21 19:30N 59°30' E 024°56'0 0.0
2018-May-21 19:00N 59°30' E 024°56'0 0.0
2018-May-21 18:30N 59°30' E 024°56'0 0.0
2018-May-21 18:00N 59°30' E 024°56'0 0.0
2018-May-21 17:30N 59°30' E 024°56'0 0.0
2018-May-21 17:00N 59°30' E 024°56'0 0.0
2018-May-21 16:30N 59°30' E 024°56'0 0.0
2018-May-21 16:00N 59°30' E 024°56'0 0.0
2018-May-21 15:30N 59°30' E 024°56'0 0.0
2018-May-21 15:00N 59°30' E 024°56'0 0.0
2018-May-21 14:30N 59°30' E 024°56'0 0.0
2018-May-21 14:00N 59°30' E 024°56'0 0.0
2018-May-21 13:30N 59°30' E 024°56'0 0.0
2018-May-21 13:00N 59°30' E 024°56'4 7.6
2018-May-21 12:30N 59°32' E 025°02'611.5
2018-May-21 12:00N 59°37' E 025°09'611.3
2018-May-21 11:30N 59°42' E 025°14'612.0
2018-May-21 11:00N 59°46' E 025°23'612.1
2018-May-21 10:30N 59°50' E 025°32'611.7
2018-May-21 10:00N 59°54' E 025°41'611.8
2018-May-21 09:30N 59°56' E 025°52'611.4
2018-May-21 08:58N 59°58' E 026°04'511.1
2018-May-21 08:30N 59°59' E 026°13'611.0
2018-May-21 08:00N 60°00' E 026°24'611.2
2018-May-21 07:30N 60°01' E 026°35'611.0
2018-May-21 07:00N 60°01' E 026°46'511.0
2018-May-21 06:30N 59°60' E 026°57'510.3
2018-May-21 06:00N 60°00' E 027°07'510.9
2018-May-21 05:30N 60°03' E 027°16'510.8
2018-May-21 05:00N 60°06' E 027°26'712.7
2018-May-21 04:25N 60°10' E 027°38'510.4
2018-May-21 03:55N 60°12' E 027°48'511.6
2018-May-21 03:29N 60°10' E 027°58'612.4
2018-May-21 02:58N 60°09' E 028°10'611.1
2018-May-21 02:25N 60°06' E 028°21'511.1
2018-May-21 01:57N 60°04' E 028°30'610.8
2018-May-21 01:23N 60°03' E 028°42'511.5
2018-May-21 00:59N 60°03' E 028°52'713.0
2018-May-21 00:27N 60°02' E 029°05'3 5.3
2018-May-20 23:59N 60°02' E 029°11'611.1
2018-May-20 23:28N 60°02' E 029°22'511.1
2018-May-20 23:00N 60°01' E 029°32'611.4
2018-May-20 22:30N 59°59' E 029°43'510.4
2018-May-20 22:00N 59°57' E 029°52'611.4
2018-May-20 21:30N 59°55' E 030°03'4 7.6
2018-May-20 21:00N 59°53' E 030°10'2 3.5
2018-May-20 20:30N 59°53' E 030°13'0 0.6
2018-May-20 20:00N 59°53' E 030°14'0 0.0
2018-May-20 19:30N 59°53' E 030°14'0 0.0
2018-May-20 19:00N 59°53' E 030°14'0 0.0
2018-May-20 18:30N 59°53' E 030°14'0 0.0
2018-May-20 18:00N 59°53' E 030°14'0 0.0
2018-May-20 17:30N 59°53' E 030°14'0 0.0
2018-May-20 17:00N 59°53' E 030°14'0 0.0
2018-May-20 16:30N 59°53' E 030°14'0 0.0
2018-May-20 16:00N 59°53' E 030°14'0 0.0
2018-May-20 15:30N 59°53' E 030°14'0 0.0
2018-May-20 15:00N 59°53' E 030°14'0 0.0
2018-May-20 14:30N 59°53' E 030°14'0 0.0
2018-May-20 14:00N 59°53' E 030°14'0 0.0
2018-May-20 13:30N 59°53' E 030°14'0 0.0
2018-May-20 13:00N 59°53' E 030°14'0 0.0
2018-May-20 12:30N 59°53' E 030°14'0 0.0
2018-May-20 12:00N 59°53' E 030°14'0 0.0
2018-May-20 11:30N 59°53' E 030°14'0 0.0
2018-May-20 11:00N 59°53' E 030°14'0 0.0
2018-May-20 10:30N 59°53' E 030°14'0 0.0
2018-May-20 10:00N 59°53' E 030°14'0 0.0
2018-May-20 09:30N 59°53' E 030°14'0 0.0
2018-May-20 09:01N 59°53' E 030°14'0 0.0
2018-May-20 08:30N 59°53' E 030°14'0 0.0
2018-May-20 08:00N 59°53' E 030°14'0 0.0
2018-May-20 07:30N 59°53' E 030°14'0 0.0
2018-May-20 07:00N 59°53' E 030°14'0 0.0
2018-May-20 06:30N 59°53' E 030°14'0 0.0
2018-May-20 06:00N 59°53' E 030°14'0 0.0
2018-May-20 05:30N 59°53' E 030°14'0 0.0
2018-May-20 05:00N 59°53' E 030°14'0 0.0
2018-May-20 04:30N 59°53' E 030°14'0 0.0
2018-May-20 04:00N 59°53' E 030°14'0 0.0
2018-May-20 03:30N 59°53' E 030°14'0 0.0
2018-May-20 03:00N 59°53' E 030°14'0 0.0
2018-May-20 02:30N 59°53' E 030°14'0 0.0
2018-May-20 02:00N 59°53' E 030°14'0 0.0
2018-May-20 01:30N 59°53' E 030°14'0 0.2
2018-May-20 00:56N 59°53' E 030°13'0 0.0
2018-May-20 00:30N 59°53' E 030°13'0 0.0
2018-May-20 00:00N 59°53' E 030°13'0 0.0
2018-May-19 23:30N 59°53' E 030°13'0 0.0
2018-May-19 23:00N 59°53' E 030°13'0 0.0
2018-May-19 22:30N 59°53' E 030°13'0 0.0
2018-May-19 22:00N 59°53' E 030°13'0 0.0
2018-May-19 21:30N 59°53' E 030°13'0 0.0
2018-May-19 21:00N 59°53' E 030°13'0 0.0
2018-May-19 20:30N 59°53' E 030°13'0 0.0
2018-May-19 20:00N 59°53' E 030°13'0 0.0
2018-May-19 19:30N 59°53' E 030°13'0 0.0
2018-May-19 19:00N 59°53' E 030°13'0 0.0
2018-May-19 18:31N 59°53' E 030°13'0 0.0
2018-May-19 18:00N 59°53' E 030°13'0 0.0
2018-May-19 17:31N 59°53' E 030°13'0 0.0
2018-May-19 17:00N 59°53' E 030°13'0 0.0
2018-May-19 16:30N 59°53' E 030°13'0 0.0
2018-May-19 16:01N 59°53' E 030°13'0 0.0
2018-May-19 15:30N 59°53' E 030°13'0 0.0
2018-May-19 15:00N 59°53' E 030°13'0 0.0
2018-May-19 14:30N 59°53' E 030°13'0 0.0
2018-May-19 14:00N 59°53' E 030°13'0 0.0
2018-May-19 13:30N 59°53' E 030°13'0 0.0
2018-May-19 13:00N 59°53' E 030°13'0 0.0
2018-May-19 12:30N 59°53' E 030°13'0 0.0
2018-May-19 12:00N 59°53' E 030°13'0 0.0
2018-May-19 11:30N 59°53' E 030°13'0 0.0
2018-May-19 11:00N 59°53' E 030°13'0 0.0
2018-May-19 10:30N 59°53' E 030°13'0 0.0
2018-May-19 10:00N 59°53' E 030°13'0 0.0
2018-May-19 09:29N 59°53' E 030°13'0 0.0
2018-May-19 09:00N 59°53' E 030°13'0 0.0
2018-May-19 08:30N 59°53' E 030°13'0 0.0
2018-May-19 08:00N 59°53' E 030°13'0 0.0
2018-May-19 07:30N 59°53' E 030°13'0 0.0
2018-May-19 07:01N 59°53' E 030°13'0 0.0
2018-May-19 06:30N 59°53' E 030°13'0 0.0
2018-May-19 06:00N 59°53' E 030°13'0 0.0
2018-May-19 05:30N 59°53' E 030°13'0 0.0
2018-May-19 05:00N 59°53' E 030°13'0 0.0
2018-May-19 04:28N 59°53' E 030°13'0 0.0
2018-May-19 04:00N 59°53' E 030°13'0 0.0
2018-May-19 03:30N 59°53' E 030°13'0 0.0
2018-May-19 03:00N 59°53' E 030°13'0 0.0
2018-May-19 02:30N 59°53' E 030°13'0 0.0
2018-May-19 02:00N 59°53' E 030°13'0 0.0
2018-May-19 01:30N 59°53' E 030°13'0 0.0
2018-May-19 01:00N 59°53' E 030°13'0 0.0
2018-May-19 00:30N 59°53' E 030°13'0 0.0
2018-May-19 00:00N 59°53' E 030°13'0 0.0
2018-May-18 23:30N 59°53' E 030°13'0 0.0
2018-May-18 23:00N 59°53' E 030°13'0 0.0
2018-May-18 22:30N 59°53' E 030°13'0 0.0
2018-May-18 22:00N 59°53' E 030°13'0 0.0
2018-May-18 21:30N 59°53' E 030°13'0 0.0
2018-May-18 21:00N 59°53' E 030°13'0 0.0
2018-May-18 20:30N 59°53' E 030°13'0 0.0
2018-May-18 20:00N 59°53' E 030°13'0 0.0
2018-May-18 19:30N 59°53' E 030°13'0 0.0
2018-May-18 19:00N 59°53' E 030°13'0 0.0
2018-May-18 18:30N 59°53' E 030°13'0 0.0
2018-May-18 18:01N 59°53' E 030°13'0 0.0
2018-May-18 17:30N 59°53' E 030°13'0 0.2
2018-May-18 17:00N 59°53' E 030°14'0 0.0
2018-May-18 16:30N 59°53' E 030°14'0 0.0
2018-May-18 16:00N 59°53' E 030°14'0 0.2
2018-May-18 15:30N 59°53' E 030°13'2 5.0
2018-May-18 15:00N 59°54' E 030°09'4 8.2
2018-May-18 14:30N 59°55' E 030°01'510.7
2018-May-18 14:00N 59°57' E 029°51'6 9.7
2018-May-18 13:25N 59°60' E 029°41'610.0
2018-May-18 12:49N 60°01' E 029°29'3 7.1
2018-May-18 12:27N 60°01' E 029°24'0 0.2
2018-May-18 10:54N 60°01' E 029°24'0 0.0
2018-May-18 10:15N 60°01' E 029°24'0 0.0
2018-May-18 09:35N 60°01' E 029°24'0 0.1
2018-May-18 09:27N 60°01' E 029°24'0 0.0
2018-May-18 08:57N 60°01' E 029°24'0 0.0
2018-May-18 08:30N 60°01' E 029°24'4 4.2
2018-May-18 07:35N 60°01' E 029°16'221.7
2018-May-18 07:30N 60°01' E 029°12'5 9.9
2018-May-18 07:00N 60°01' E 029°03'510.6
2018-May-18 06:30N 60°06' E 028°58'611.7
2018-May-18 06:00N 60°11' E 028°53'611.2
2018-May-18 05:30N 60°16' E 028°47'5 7.8
2018-May-18 04:53N 60°20' E 028°42'0 0.0
2018-May-18 04:27N 60°20' E 028°42'0 0.0
2018-May-18 04:00N 60°20' E 028°42'0 0.0
2018-May-18 03:27N 60°20' E 028°42'0 0.0
2018-May-18 03:00N 60°20' E 028°42'0 0.0
2018-May-18 02:29N 60°20' E 028°42'0 0.0
2018-May-18 02:00N 60°20' E 028°42'0 0.0
2018-May-18 01:30N 60°20' E 028°42'0 0.0
2018-May-18 01:00N 60°20' E 028°42'0 0.0
2018-May-18 00:27N 60°20' E 028°42'0 0.0
2018-May-18 00:00N 60°20' E 028°42'0 0.0
2018-May-17 23:29N 60°20' E 028°42'0 0.0
2018-May-17 23:01N 60°20' E 028°42'0 0.0
2018-May-17 22:26N 60°20' E 028°42'0 0.0
2018-May-17 21:59N 60°20' E 028°42'0 0.0
2018-May-17 21:29N 60°20' E 028°42'1 1.4
2018-May-17 20:57N 60°20' E 028°42'510.6
2018-May-17 20:29N 60°16' E 028°49'510.5
2018-May-17 20:00N 60°12' E 028°55'611.4
2018-May-17 19:30N 60°06' E 028°57'5 9.9
2018-May-17 19:00N 60°02' E 029°04'612.1
2018-May-17 18:30N 60°02' E 029°16'612.2
2018-May-17 18:00N 60°02' E 029°28'612.3
2018-May-17 17:30N 59°60' E 029°40'510.5
2018-May-17 17:00N 59°57' E 029°50'611.0
2018-May-17 16:30N 59°55' E 029°60'5 9.4
2018-May-17 16:00N 59°54' E 030°08'3 5.4
2018-May-17 15:31N 59°53' E 030°14'0 0.0
2018-May-17 15:00N 59°53' E 030°14'0 0.0
2018-May-17 14:30N 59°53' E 030°14'0 0.0
2018-May-17 14:00N 59°53' E 030°14'0 0.0
2018-May-17 13:30N 59°53' E 030°14'0 0.0
2018-May-17 13:00N 59°53' E 030°14'0 0.0
2018-May-17 12:30N 59°53' E 030°14'0 0.0
2018-May-17 12:00N 59°53' E 030°14'0 0.0
2018-May-17 11:30N 59°53' E 030°14'0 0.0
2018-May-17 11:00N 59°53' E 030°14'0 0.0
2018-May-17 10:30N 59°53' E 030°14'0 0.0
2018-May-17 10:00N 59°53' E 030°14'0 0.0
2018-May-17 09:31N 59°53' E 030°14'0 0.0
2018-May-17 09:00N 59°53' E 030°14'0 0.0
2018-May-17 08:30N 59°53' E 030°14'0 0.0
2018-May-17 08:00N 59°53' E 030°14'0 0.0
2018-May-17 07:30N 59°53' E 030°14'0 0.0
2018-May-17 07:00N 59°53' E 030°14'0 0.0
2018-May-17 06:30N 59°53' E 030°14'0 0.0
2018-May-17 06:00N 59°53' E 030°14'0 0.0
2018-May-17 05:30N 59°53' E 030°14'0 0.0
2018-May-17 05:00N 59°53' E 030°14'0 0.0
2018-May-17 04:30N 59°53' E 030°14'0 0.3
2018-May-17 04:00N 59°53' E 030°13'3 5.7
2018-May-17 03:30N 59°54' E 030°08'5 9.1
2018-May-17 03:00N 59°55' E 029°59'610.8
2018-May-17 02:28N 59°58' E 029°48'  

Dump ship's entire track history